sensor_id;sensor_type;location;lat;lon;timestamp;temperature;humidity
1700;DHT22;847;48.058;7.810;2023-05-23T00:01:32;18.20;99.00
1700;DHT22;847;48.058;7.810;2023-05-23T00:04:02;18.20;99.00
1700;DHT22;847;48.058;7.810;2023-05-23T00:06:28;18.00;99.00
1700;DHT22;847;48.058;7.810;2023-05-23T00:08:56;18.00;99.00
1700;DHT22;847;48.058;7.810;2023-05-23T00:11:23;18.10;99.00
1700;DHT22;847;48.058;7.810;2023-05-23T00:13:51;18.00;99.00
1700;DHT22;847;48.058;7.810;2023-05-23T00:16:18;18.10;99.00
1700;DHT22;847;48.058;7.810;2023-05-23T00:18:47;18.10;99.00
1700;DHT22;847;48.058;7.810;2023-05-23T00:21:14;18.10;99.00
1700;DHT22;847;48.058;7.810;2023-05-23T00:23:42;18.10;99.00
1700;DHT22;847;48.058;7.810;2023-05-23T00:26:09;18.00;99.00
1700;DHT22;847;48.058;7.810;2023-05-23T00:28:36;18.00;99.00
1700;DHT22;847;48.058;7.810;2023-05-23T00:31:03;18.00;99.00
1700;DHT22;847;48.058;7.810;2023-05-23T00:33:30;17.90;99.00
1700;DHT22;847;48.058;7.810;2023-05-23T00:35:59;17.80;99.00
1700;DHT22;847;48.058;7.810;2023-05-23T00:38:25;17.70;99.00
1700;DHT22;847;48.058;7.810;2023-05-23T00:40:52;17.60;99.00
1700;DHT22;847;48.058;7.810;2023-05-23T00:43:19;17.60;99.00
1700;DHT22;847;48.058;7.810;2023-05-23T00:45:47;17.40;99.00
1700;DHT22;847;48.058;7.810;2023-05-23T00:48:14;17.20;99.00
1700;DHT22;847;48.058;7.810;2023-05-23T00:50:41;17.20;99.00
1700;DHT22;847;48.058;7.810;2023-05-23T00:53:09;17.40;99.00
1700;DHT22;847;48.058;7.810;2023-05-23T00:55:36;17.40;99.00
1700;DHT22;847;48.058;7.810;2023-05-23T00:58:04;17.40;99.00
1700;DHT22;847;48.058;7.810;2023-05-23T01:00:31;17.40;99.00
1700;DHT22;847;48.058;7.810;2023-05-23T01:02:59;17.40;99.00
1700;DHT22;847;48.058;7.810;2023-05-23T01:05:26;17.40;99.00
1700;DHT22;847;48.058;7.810;2023-05-23T01:07:53;17.50;99.00
1700;DHT22;847;48.058;7.810;2023-05-23T01:10:24;17.60;99.00
1700;DHT22;847;48.058;7.810;2023-05-23T01:13:01;17.60;99.00
1700;DHT22;847;48.058;7.810;2023-05-23T01:15:37;17.70;99.00
1700;DHT22;847;48.058;7.810;2023-05-23T01:18:07;17.70;99.00
1700;DHT22;847;48.058;7.810;2023-05-23T01:20:38;17.70;99.00
1700;DHT22;847;48.058;7.810;2023-05-23T01:23:18;17.60;99.00
1700;DHT22;847;48.058;7.810;2023-05-23T01:26:17;17.50;99.00
1700;DHT22;847;48.058;7.810;2023-05-23T01:28:47;17.50;99.00
1700;DHT22;847;48.058;7.810;2023-05-23T01:31:16;17.60;99.00
1700;DHT22;847;48.058;7.810;2023-05-23T01:33:45;17.60;99.00
1700;DHT22;847;48.058;7.810;2023-05-23T01:36:12;17.60;99.00
1700;DHT22;847;48.058;7.810;2023-05-23T01:38:39;17.40;99.00
1700;DHT22;847;48.058;7.810;2023-05-23T01:41:07;17.30;99.00
1700;DHT22;847;48.058;7.810;2023-05-23T01:43:34;17.30;99.00
1700;DHT22;847;48.058;7.810;2023-05-23T01:46:03;17.30;99.00
1700;DHT22;847;48.058;7.810;2023-05-23T01:48:31;17.40;99.00
1700;DHT22;847;48.058;7.810;2023-05-23T01:50:58;17.30;99.00
1700;DHT22;847;48.058;7.810;2023-05-23T01:53:26;17.30;99.00
1700;DHT22;847;48.058;7.810;2023-05-23T01:55:54;17.40;99.00
1700;DHT22;847;48.058;7.810;2023-05-23T01:58:21;17.50;99.00
1700;DHT22;847;48.058;7.810;2023-05-23T02:00:47;17.40;99.00
1700;DHT22;847;48.058;7.810;2023-05-23T02:03:16;17.50;99.00
1700;DHT22;847;48.058;7.810;2023-05-23T02:05:42;17.50;99.00
1700;DHT22;847;48.058;7.810;2023-05-23T02:08:09;17.50;99.00
1700;DHT22;847;48.058;7.810;2023-05-23T02:10:36;17.40;99.00
1700;DHT22;847;48.058;7.810;2023-05-23T02:13:02;17.30;99.00
1700;DHT22;847;48.058;7.810;2023-05-23T02:15:29;17.40;99.00
1700;DHT22;847;48.058;7.810;2023-05-23T02:17:56;17.40;99.00
1700;DHT22;847;48.058;7.810;2023-05-23T02:20:24;17.20;99.00
1700;DHT22;847;48.058;7.810;2023-05-23T02:22:51;17.20;99.00
1700;DHT22;847;48.058;7.810;2023-05-23T02:25:18;17.20;99.00
1700;DHT22;847;48.058;7.810;2023-05-23T02:27:45;17.30;99.00
1700;DHT22;847;48.058;7.810;2023-05-23T02:30:12;17.30;99.00
1700;DHT22;847;48.058;7.810;2023-05-23T02:32:39;17.30;99.00
1700;DHT22;847;48.058;7.810;2023-05-23T02:35:06;17.10;99.00
1700;DHT22;847;48.058;7.810;2023-05-23T02:37:36;16.90;99.00
1700;DHT22;847;48.058;7.810;2023-05-23T02:40:04;16.80;99.00
1700;DHT22;847;48.058;7.810;2023-05-23T02:42:32;16.80;99.00
1700;DHT22;847;48.058;7.810;2023-05-23T02:44:58;16.80;99.00
1700;DHT22;847;48.058;7.810;2023-05-23T02:47:26;16.80;99.00
1700;DHT22;847;48.058;7.810;2023-05-23T02:49:52;16.90;99.00
1700;DHT22;847;48.058;7.810;2023-05-23T02:52:19;16.90;99.00
1700;DHT22;847;48.058;7.810;2023-05-23T02:54:47;17.00;99.00
1700;DHT22;847;48.058;7.810;2023-05-23T02:57:14;16.90;99.00
1700;DHT22;847;48.058;7.810;2023-05-23T02:59:41;16.90;99.00
1700;DHT22;847;48.058;7.810;2023-05-23T03:02:08;16.90;99.00
1700;DHT22;847;48.058;7.810;2023-05-23T03:04:34;16.80;99.00
1700;DHT22;847;48.058;7.810;2023-05-23T03:07:02;16.90;99.00
1700;DHT22;847;48.058;7.810;2023-05-23T03:09:30;16.90;99.00
1700;DHT22;847;48.058;7.810;2023-05-23T03:11:58;16.90;99.00
1700;DHT22;847;48.058;7.810;2023-05-23T03:14:25;16.90;99.00
1700;DHT22;847;48.058;7.810;2023-05-23T03:16:52;16.90;99.00
1700;DHT22;847;48.058;7.810;2023-05-23T03:19:19;17.00;99.00
1700;DHT22;847;48.058;7.810;2023-05-23T03:21:45;17.10;99.00
1700;DHT22;847;48.058;7.810;2023-05-23T03:24:14;17.10;99.00
1700;DHT22;847;48.058;7.810;2023-05-23T03:26:41;17.10;99.00
1700;DHT22;847;48.058;7.810;2023-05-23T03:29:09;17.10;99.00
1700;DHT22;847;48.058;7.810;2023-05-23T03:31:36;17.20;99.00
1700;DHT22;847;48.058;7.810;2023-05-23T03:34:03;17.20;99.00
1700;DHT22;847;48.058;7.810;2023-05-23T03:36:30;17.20;99.00
1700;DHT22;847;48.058;7.810;2023-05-23T03:38:58;17.20;99.00
1700;DHT22;847;48.058;7.810;2023-05-23T03:41:25;17.20;99.00
1700;DHT22;847;48.058;7.810;2023-05-23T03:43:52;17.10;99.00
1700;DHT22;847;48.058;7.810;2023-05-23T03:46:20;17.10;99.00
1700;DHT22;847;48.058;7.810;2023-05-23T03:48:47;17.20;99.00
1700;DHT22;847;48.058;7.810;2023-05-23T03:51:13;17.10;99.00
1700;DHT22;847;48.058;7.810;2023-05-23T03:53:40;17.10;99.00
1700;DHT22;847;48.058;7.810;2023-05-23T03:56:07;17.10;99.00
1700;DHT22;847;48.058;7.810;2023-05-23T03:58:34;17.10;99.00
1700;DHT22;847;48.058;7.810;2023-05-23T04:01:00;17.10;99.00
1700;DHT22;847;48.058;7.810;2023-05-23T04:03:29;17.10;99.00
1700;DHT22;847;48.058;7.810;2023-05-23T04:05:57;17.00;99.00
1700;DHT22;847;48.058;7.810;2023-05-23T04:08:23;17.10;99.00
1700;DHT22;847;48.058;7.810;2023-05-23T04:10:50;17.10;99.00
1700;DHT22;847;48.058;7.810;2023-05-23T04:13:17;17.20;99.00
1700;DHT22;847;48.058;7.810;2023-05-23T04:15:45;17.20;99.00
1700;DHT22;847;48.058;7.810;2023-05-23T04:18:12;17.20;99.00
1700;DHT22;847;48.058;7.810;2023-05-23T04:20:40;17.20;99.00
1700;DHT22;847;48.058;7.810;2023-05-23T04:23:07;17.20;99.00
1700;DHT22;847;48.058;7.810;2023-05-23T04:25:34;17.30;99.00
1700;DHT22;847;48.058;7.810;2023-05-23T04:28:01;17.30;99.00
1700;DHT22;847;48.058;7.810;2023-05-23T04:30:27;17.40;99.00
1700;DHT22;847;48.058;7.810;2023-05-23T04:32:55;17.40;99.00
1700;DHT22;847;48.058;7.810;2023-05-23T04:35:24;17.40;99.00
1700;DHT22;847;48.058;7.810;2023-05-23T04:37:54;17.40;99.00
1700;DHT22;847;48.058;7.810;2023-05-23T04:40:21;17.40;99.00
1700;DHT22;847;48.058;7.810;2023-05-23T04:42:48;17.40;99.00
1700;DHT22;847;48.058;7.810;2023-05-23T04:45:16;17.40;99.00
1700;DHT22;847;48.058;7.810;2023-05-23T04:47:44;17.40;99.00
1700;DHT22;847;48.058;7.810;2023-05-23T04:50:11;17.30;99.00
1700;DHT22;847;48.058;7.810;2023-05-23T04:52:39;17.30;99.00
1700;DHT22;847;48.058;7.810;2023-05-23T04:55:08;17.30;99.00
1700;DHT22;847;48.058;7.810;2023-05-23T04:57:34;17.30;99.00
1700;DHT22;847;48.058;7.810;2023-05-23T05:00:02;17.30;99.00
1700;DHT22;847;48.058;7.810;2023-05-23T05:02:32;17.20;99.00
1700;DHT22;847;48.058;7.810;2023-05-23T05:05:01;17.20;99.00
1700;DHT22;847;48.058;7.810;2023-05-23T05:07:28;17.20;99.00
1700;DHT22;847;48.058;7.810;2023-05-23T05:09:55;17.30;99.00
1700;DHT22;847;48.058;7.810;2023-05-23T05:12:23;17.30;99.00
1700;DHT22;847;48.058;7.810;2023-05-23T05:14:50;17.40;99.00
1700;DHT22;847;48.058;7.810;2023-05-23T05:17:17;17.40;99.00
1700;DHT22;847;48.058;7.810;2023-05-23T05:19:44;17.50;99.00
1700;DHT22;847;48.058;7.810;2023-05-23T05:22:11;17.50;99.00
1700;DHT22;847;48.058;7.810;2023-05-23T05:24:37;17.40;99.00
1700;DHT22;847;48.058;7.810;2023-05-23T05:27:05;17.50;99.00
1700;DHT22;847;48.058;7.810;2023-05-23T05:29:35;17.50;99.00
1700;DHT22;847;48.058;7.810;2023-05-23T05:32:02;17.60;99.00
1700;DHT22;847;48.058;7.810;2023-05-23T05:34:29;17.50;99.00
1700;DHT22;847;48.058;7.810;2023-05-23T05:36:56;17.60;99.00
1700;DHT22;847;48.058;7.810;2023-05-23T05:39:23;17.60;99.00
1700;DHT22;847;48.058;7.810;2023-05-23T05:41:51;17.60;99.00
1700;DHT22;847;48.058;7.810;2023-05-23T05:44:17;17.60;99.00
1700;DHT22;847;48.058;7.810;2023-05-23T05:46:46;17.60;99.00
1700;DHT22;847;48.058;7.810;2023-05-23T05:49:12;17.60;99.00
1700;DHT22;847;48.058;7.810;2023-05-23T05:51:39;17.60;99.00
1700;DHT22;847;48.058;7.810;2023-05-23T05:54:06;17.60;99.00
1700;DHT22;847;48.058;7.810;2023-05-23T05:56:33;17.60;99.00
1700;DHT22;847;48.058;7.810;2023-05-23T05:59:00;17.70;99.00
1700;DHT22;847;48.058;7.810;2023-05-23T06:01:26;17.70;99.00
1700;DHT22;847;48.058;7.810;2023-05-23T06:03:55;17.70;99.00
1700;DHT22;847;48.058;7.810;2023-05-23T06:06:22;17.60;99.00
1700;DHT22;847;48.058;7.810;2023-05-23T06:08:49;17.60;99.00
1700;DHT22;847;48.058;7.810;2023-05-23T06:11:16;17.60;99.00
1700;DHT22;847;48.058;7.810;2023-05-23T06:13:43;17.60;99.00
1700;DHT22;847;48.058;7.810;2023-05-23T06:16:12;17.60;99.00
1700;DHT22;847;48.058;7.810;2023-05-23T06:18:39;17.70;99.00
1700;DHT22;847;48.058;7.810;2023-05-23T06:21:08;17.60;99.00
1700;DHT22;847;48.058;7.810;2023-05-23T06:23:34;17.70;99.00
1700;DHT22;847;48.058;7.810;2023-05-23T06:26:01;17.70;99.00
1700;DHT22;847;48.058;7.810;2023-05-23T06:28:32;17.70;99.00
1700;DHT22;847;48.058;7.810;2023-05-23T06:30:59;17.70;99.00
1700;DHT22;847;48.058;7.810;2023-05-23T06:33:26;17.70;99.00
1700;DHT22;847;48.058;7.810;2023-05-23T06:35:56;17.70;99.00
1700;DHT22;847;48.058;7.810;2023-05-23T06:38:25;17.70;99.00
1700;DHT22;847;48.058;7.810;2023-05-23T06:40:54;17.70;99.00
1700;DHT22;847;48.058;7.810;2023-05-23T06:43:21;17.70;99.00
1700;DHT22;847;48.058;7.810;2023-05-23T06:45:47;17.70;99.00
1700;DHT22;847;48.058;7.810;2023-05-23T06:48:14;17.80;99.00
1700;DHT22;847;48.058;7.810;2023-05-23T06:50:41;17.80;99.00
1700;DHT22;847;48.058;7.810;2023-05-23T06:53:08;17.80;99.00
1700;DHT22;847;48.058;7.810;2023-05-23T06:55:36;17.80;99.00
1700;DHT22;847;48.058;7.810;2023-05-23T06:58:03;17.90;99.00
1700;DHT22;847;48.058;7.810;2023-05-23T07:00:29;17.90;99.00
1700;DHT22;847;48.058;7.810;2023-05-23T07:02:56;17.90;99.00
1700;DHT22;847;48.058;7.810;2023-05-23T07:05:26;18.00;99.00
1700;DHT22;847;48.058;7.810;2023-05-23T07:07:53;18.00;99.00
1700;DHT22;847;48.058;7.810;2023-05-23T07:10:20;18.10;99.00
1700;DHT22;847;48.058;7.810;2023-05-23T07:12:48;18.10;99.00
1700;DHT22;847;48.058;7.810;2023-05-23T07:15:15;18.10;99.00
1700;DHT22;847;48.058;7.810;2023-05-23T07:17:41;18.20;99.00
1700;DHT22;847;48.058;7.810;2023-05-23T07:20:09;18.20;99.00
1700;DHT22;847;48.058;7.810;2023-05-23T07:22:36;18.30;99.00
1700;DHT22;847;48.058;7.810;2023-05-23T07:25:04;18.40;99.00
1700;DHT22;847;48.058;7.810;2023-05-23T07:27:30;18.40;99.00
1700;DHT22;847;48.058;7.810;2023-05-23T07:29:58;18.50;99.00
1700;DHT22;847;48.058;7.810;2023-05-23T07:32:25;18.60;99.00
1700;DHT22;847;48.058;7.810;2023-05-23T07:34:52;18.60;99.00
1700;DHT22;847;48.058;7.810;2023-05-23T07:37:19;18.70;99.00
1700;DHT22;847;48.058;7.810;2023-05-23T07:39:46;18.70;99.00
1700;DHT22;847;48.058;7.810;2023-05-23T07:42:12;18.80;99.00
1700;DHT22;847;48.058;7.810;2023-05-23T07:44:40;18.80;99.00
1700;DHT22;847;48.058;7.810;2023-05-23T07:47:08;18.80;99.00
1700;DHT22;847;48.058;7.810;2023-05-23T07:49:35;18.90;99.00
1700;DHT22;847;48.058;7.810;2023-05-23T07:52:02;19.00;99.00
1700;DHT22;847;48.058;7.810;2023-05-23T07:54:28;19.00;99.00
1700;DHT22;847;48.058;7.810;2023-05-23T07:56:55;19.00;99.00
1700;DHT22;847;48.058;7.810;2023-05-23T07:59:22;19.00;99.00
1700;DHT22;847;48.058;7.810;2023-05-23T08:01:48;19.10;99.00
1700;DHT22;847;48.058;7.810;2023-05-23T08:04:17;19.10;99.00
1700;DHT22;847;48.058;7.810;2023-05-23T08:06:44;19.10;99.00
1700;DHT22;847;48.058;7.810;2023-05-23T08:09:12;19.00;99.00
1700;DHT22;847;48.058;7.810;2023-05-23T08:11:40;18.90;99.00
1700;DHT22;847;48.058;7.810;2023-05-23T08:14:06;18.80;99.00
1700;DHT22;847;48.058;7.810;2023-05-23T08:16:34;18.90;99.00
1700;DHT22;847;48.058;7.810;2023-05-23T08:19:00;18.90;99.00
1700;DHT22;847;48.058;7.810;2023-05-23T08:21:28;18.90;99.00
1700;DHT22;847;48.058;7.810;2023-05-23T08:23:56;18.70;99.00
1700;DHT22;847;48.058;7.810;2023-05-23T08:26:23;18.80;99.00
1700;DHT22;847;48.058;7.810;2023-05-23T08:28:52;18.80;99.00
1700;DHT22;847;48.058;7.810;2023-05-23T08:31:18;18.70;99.00
1700;DHT22;847;48.058;7.810;2023-05-23T08:33:46;18.70;99.00
1700;DHT22;847;48.058;7.810;2023-05-23T08:36:13;18.70;99.00
1700;DHT22;847;48.058;7.810;2023-05-23T08:38:41;18.60;99.00
1700;DHT22;847;48.058;7.810;2023-05-23T08:41:15;18.70;99.00
1700;DHT22;847;48.058;7.810;2023-05-23T08:43:44;18.70;99.00
1700;DHT22;847;48.058;7.810;2023-05-23T08:46:11;18.70;99.00
1700;DHT22;847;48.058;7.810;2023-05-23T08:48:38;18.80;99.00
1700;DHT22;847;48.058;7.810;2023-05-23T08:51:06;18.80;99.00
1700;DHT22;847;48.058;7.810;2023-05-23T08:53:35;18.80;99.00
1700;DHT22;847;48.058;7.810;2023-05-23T08:56:05;18.80;99.00
1700;DHT22;847;48.058;7.810;2023-05-23T08:58:33;18.70;99.00
1700;DHT22;847;48.058;7.810;2023-05-23T09:01:01;18.70;99.00
1700;DHT22;847;48.058;7.810;2023-05-23T09:03:28;18.70;99.00
1700;DHT22;847;48.058;7.810;2023-05-23T09:05:55;18.70;99.00
1700;DHT22;847;48.058;7.810;2023-05-23T09:08:23;18.80;99.00
1700;DHT22;847;48.058;7.810;2023-05-23T09:10:51;18.70;99.00
1700;DHT22;847;48.058;7.810;2023-05-23T09:13:19;18.80;99.00
1700;DHT22;847;48.058;7.810;2023-05-23T09:16:04;18.90;99.00
1700;DHT22;847;48.058;7.810;2023-05-23T09:18:35;18.90;99.00
1700;DHT22;847;48.058;7.810;2023-05-23T09:21:03;19.00;99.00
1700;DHT22;847;48.058;7.810;2023-05-23T09:23:31;19.10;99.00
1700;DHT22;847;48.058;7.810;2023-05-23T09:26:01;19.20;99.00
1700;DHT22;847;48.058;7.810;2023-05-23T09:28:30;19.10;99.00
1700;DHT22;847;48.058;7.810;2023-05-23T09:30:57;19.20;99.00
1700;DHT22;847;48.058;7.810;2023-05-23T09:33:29;19.20;99.00
1700;DHT22;847;48.058;7.810;2023-05-23T09:35:58;19.50;99.00
1700;DHT22;847;48.058;7.810;2023-05-23T09:38:26;19.60;99.00
1700;DHT22;847;48.058;7.810;2023-05-23T09:40:54;19.60;99.00
1700;DHT22;847;48.058;7.810;2023-05-23T09:43:22;19.60;98.80
1700;DHT22;847;48.058;7.810;2023-05-23T09:45:52;19.60;99.00
1700;DHT22;847;48.058;7.810;2023-05-23T09:48:19;19.70;99.00
1700;DHT22;847;48.058;7.810;2023-05-23T09:50:46;19.70;99.00
1700;DHT22;847;48.058;7.810;2023-05-23T09:53:15;19.80;99.00
1700;DHT22;847;48.058;7.810;2023-05-23T09:55:42;19.80;98.00
1700;DHT22;847;48.058;7.810;2023-05-23T09:58:09;19.80;97.30
1700;DHT22;847;48.058;7.810;2023-05-23T10:00:36;19.90;98.80
1700;DHT22;847;48.058;7.810;2023-05-23T10:03:11;20.00;98.30
1700;DHT22;847;48.058;7.810;2023-05-23T10:05:42;20.00;96.20
1700;DHT22;847;48.058;7.810;2023-05-23T10:08:13;20.00;97.10
1700;DHT22;847;48.058;7.810;2023-05-23T10:14:02;20.10;98.30
1700;DHT22;847;48.058;7.810;2023-05-23T10:16:37;20.10;97.90
1700;DHT22;847;48.058;7.810;2023-05-23T10:19:12;20.20;96.20
1700;DHT22;847;48.058;7.810;2023-05-23T10:21:43;20.20;95.80
1700;DHT22;847;48.058;7.810;2023-05-23T10:24:14;20.10;95.70
1700;DHT22;847;48.058;7.810;2023-05-23T10:26:42;20.10;95.40
1700;DHT22;847;48.058;7.810;2023-05-23T10:29:10;20.20;95.80
1700;DHT22;847;48.058;7.810;2023-05-23T10:31:37;20.10;95.10
1700;DHT22;847;48.058;7.810;2023-05-23T10:34:12;20.20;95.40
1700;DHT22;847;48.058;7.810;2023-05-23T10:36:43;20.10;96.00
1700;DHT22;847;48.058;7.810;2023-05-23T10:39:19;20.10;95.40
1700;DHT22;847;48.058;7.810;2023-05-23T10:41:51;20.20;95.50
1700;DHT22;847;48.058;7.810;2023-05-23T10:44:24;20.40;96.00
1700;DHT22;847;48.058;7.810;2023-05-23T10:46:53;20.50;94.90
1700;DHT22;847;48.058;7.810;2023-05-23T10:49:36;20.30;93.80
1700;DHT22;847;48.058;7.810;2023-05-23T10:52:04;20.20;94.60
1700;DHT22;847;48.058;7.810;2023-05-23T10:54:33;20.30;95.30
1700;DHT22;847;48.058;7.810;2023-05-23T10:57:04;20.40;93.20
1700;DHT22;847;48.058;7.810;2023-05-23T10:59:31;20.40;93.10
1700;DHT22;847;48.058;7.810;2023-05-23T11:01:59;20.50;93.10
1700;DHT22;847;48.058;7.810;2023-05-23T11:04:28;20.40;92.60
1700;DHT22;847;48.058;7.810;2023-05-23T11:06:55;20.50;94.20
1700;DHT22;847;48.058;7.810;2023-05-23T11:09:22;20.50;93.10
1700;DHT22;847;48.058;7.810;2023-05-23T11:11:53;20.40;94.40
1700;DHT22;847;48.058;7.810;2023-05-23T11:17:15;20.60;94.90
1700;DHT22;847;48.058;7.810;2023-05-23T11:19:58;20.50;93.90
1700;DHT22;847;48.058;7.810;2023-05-23T11:22:26;20.50;95.70
1700;DHT22;847;48.058;7.810;2023-05-23T11:24:55;20.50;94.60
1700;DHT22;847;48.058;7.810;2023-05-23T11:27:29;20.50;94.50
1700;DHT22;847;48.058;7.810;2023-05-23T11:30:02;20.60;94.30
1700;DHT22;847;48.058;7.810;2023-05-23T11:32:30;20.50;92.90
1700;DHT22;847;48.058;7.810;2023-05-23T11:35:01;20.50;92.20
1700;DHT22;847;48.058;7.810;2023-05-23T11:37:29;20.50;93.90
1700;DHT22;847;48.058;7.810;2023-05-23T11:39:56;20.70;93.20
1700;DHT22;847;48.058;7.810;2023-05-23T11:42:23;20.80;92.30
1700;DHT22;847;48.058;7.810;2023-05-23T11:44:50;20.70;91.40
1700;DHT22;847;48.058;7.810;2023-05-23T11:47:17;20.70;92.30
1700;DHT22;847;48.058;7.810;2023-05-23T11:49:45;20.70;92.70
1700;DHT22;847;48.058;7.810;2023-05-23T11:52:13;20.70;90.90
1700;DHT22;847;48.058;7.810;2023-05-23T11:54:40;20.60;91.30
1700;DHT22;847;48.058;7.810;2023-05-23T11:57:08;20.70;91.40
1700;DHT22;847;48.058;7.810;2023-05-23T11:59:35;20.80;91.70
1700;DHT22;847;48.058;7.810;2023-05-23T12:02:02;20.90;90.60
1700;DHT22;847;48.058;7.810;2023-05-23T12:04:29;20.70;90.00
1700;DHT22;847;48.058;7.810;2023-05-23T12:06:55;20.70;91.00
1700;DHT22;847;48.058;7.810;2023-05-23T12:09:23;20.70;91.00
1700;DHT22;847;48.058;7.810;2023-05-23T12:11:50;20.90;92.60
1700;DHT22;847;48.058;7.810;2023-05-23T12:14:17;21.00;92.80
1700;DHT22;847;48.058;7.810;2023-05-23T12:16:45;20.90;90.60
1700;DHT22;847;48.058;7.810;2023-05-23T12:19:12;20.90;90.40
1700;DHT22;847;48.058;7.810;2023-05-23T12:21:41;20.80;92.30
1700;DHT22;847;48.058;7.810;2023-05-23T12:24:15;20.90;90.70
1700;DHT22;847;48.058;7.810;2023-05-23T12:26:48;20.90;89.90
1700;DHT22;847;48.058;7.810;2023-05-23T12:29:17;20.80;88.70
1700;DHT22;847;48.058;7.810;2023-05-23T12:31:47;20.80;90.10
1700;DHT22;847;48.058;7.810;2023-05-23T12:34:14;20.70;89.50
1700;DHT22;847;48.058;7.810;2023-05-23T12:36:41;20.60;88.90
1700;DHT22;847;48.058;7.810;2023-05-23T12:39:09;20.70;90.30
1700;DHT22;847;48.058;7.810;2023-05-23T12:41:36;20.80;89.20
1700;DHT22;847;48.058;7.810;2023-05-23T12:44:04;20.90;88.60
1700;DHT22;847;48.058;7.810;2023-05-23T12:46:31;20.80;89.20
1700;DHT22;847;48.058;7.810;2023-05-23T12:48:58;20.80;89.30
1700;DHT22;847;48.058;7.810;2023-05-23T12:51:24;20.90;89.20
1700;DHT22;847;48.058;7.810;2023-05-23T12:53:51;21.00;88.40
1700;DHT22;847;48.058;7.810;2023-05-23T12:56:19;21.00;88.50
1700;DHT22;847;48.058;7.810;2023-05-23T12:58:46;21.00;88.90
1700;DHT22;847;48.058;7.810;2023-05-23T13:01:14;21.10;88.10
1700;DHT22;847;48.058;7.810;2023-05-23T13:03:41;21.00;88.70
1700;DHT22;847;48.058;7.810;2023-05-23T13:06:08;21.00;88.30
1700;DHT22;847;48.058;7.810;2023-05-23T13:08:35;21.00;88.60
1700;DHT22;847;48.058;7.810;2023-05-23T13:11:02;21.00;89.00
1700;DHT22;847;48.058;7.810;2023-05-23T13:13:30;21.10;87.90
1700;DHT22;847;48.058;7.810;2023-05-23T13:15:57;21.10;87.40
1700;DHT22;847;48.058;7.810;2023-05-23T13:18:25;21.00;86.90
1700;DHT22;847;48.058;7.810;2023-05-23T13:20:52;20.90;86.40
1700;DHT22;847;48.058;7.810;2023-05-23T13:23:19;20.90;86.90
1700;DHT22;847;48.058;7.810;2023-05-23T13:25:46;20.90;88.10
1700;DHT22;847;48.058;7.810;2023-05-23T13:28:15;20.90;87.90
1700;DHT22;847;48.058;7.810;2023-05-23T13:30:41;20.80;87.00
1700;DHT22;847;48.058;7.810;2023-05-23T13:33:08;20.70;88.10
1700;DHT22;847;48.058;7.810;2023-05-23T13:35:36;20.90;87.70
1700;DHT22;847;48.058;7.810;2023-05-23T13:38:03;21.00;86.50
1700;DHT22;847;48.058;7.810;2023-05-23T13:40:30;21.10;86.30
1700;DHT22;847;48.058;7.810;2023-05-23T13:42:57;21.20;88.20
1700;DHT22;847;48.058;7.810;2023-05-23T13:45:24;21.10;86.10
1700;DHT22;847;48.058;7.810;2023-05-23T13:47:51;21.10;86.80
1700;DHT22;847;48.058;7.810;2023-05-23T13:50:18;21.00;85.70
1700;DHT22;847;48.058;7.810;2023-05-23T13:52:46;21.00;85.90
1700;DHT22;847;48.058;7.810;2023-05-23T13:55:13;20.90;85.60
1700;DHT22;847;48.058;7.810;2023-05-23T13:57:39;21.00;85.30
1700;DHT22;847;48.058;7.810;2023-05-23T14:00:07;21.20;85.30
1700;DHT22;847;48.058;7.810;2023-05-23T14:02:34;21.10;84.30
1700;DHT22;847;48.058;7.810;2023-05-23T14:05:01;21.10;85.10
1700;DHT22;847;48.058;7.810;2023-05-23T14:07:27;21.00;84.50
1700;DHT22;847;48.058;7.810;2023-05-23T14:09:55;21.10;84.80
1700;DHT22;847;48.058;7.810;2023-05-23T14:12:24;21.10;84.70
1700;DHT22;847;48.058;7.810;2023-05-23T14:14:50;20.90;85.00
1700;DHT22;847;48.058;7.810;2023-05-23T14:17:17;21.00;85.10
1700;DHT22;847;48.058;7.810;2023-05-23T14:19:44;21.10;84.40
1700;DHT22;847;48.058;7.810;2023-05-23T14:22:11;21.00;84.80
1700;DHT22;847;48.058;7.810;2023-05-23T14:24:37;20.90;84.20
1700;DHT22;847;48.058;7.810;2023-05-23T14:27:06;21.10;85.10
1700;DHT22;847;48.058;7.810;2023-05-23T14:29:32;21.00;83.70
1700;DHT22;847;48.058;7.810;2023-05-23T14:31:59;20.90;84.70
1700;DHT22;847;48.058;7.810;2023-05-23T14:34:28;20.90;83.40
1700;DHT22;847;48.058;7.810;2023-05-23T14:36:55;20.90;84.00
1700;DHT22;847;48.058;7.810;2023-05-23T14:39:21;21.10;84.60
1700;DHT22;847;48.058;7.810;2023-05-23T14:41:49;21.10;83.60
1700;DHT22;847;48.058;7.810;2023-05-23T14:44:17;21.20;83.90
1700;DHT22;847;48.058;7.810;2023-05-23T14:46:44;21.20;83.00
1700;DHT22;847;48.058;7.810;2023-05-23T14:49:13;21.20;82.70
1700;DHT22;847;48.058;7.810;2023-05-23T14:51:40;21.30;83.20
1700;DHT22;847;48.058;7.810;2023-05-23T14:54:06;21.30;83.20
1700;DHT22;847;48.058;7.810;2023-05-23T14:56:34;21.30;82.70
1700;DHT22;847;48.058;7.810;2023-05-23T14:59:02;21.30;82.30
1700;DHT22;847;48.058;7.810;2023-05-23T15:01:30;21.30;80.90
1700;DHT22;847;48.058;7.810;2023-05-23T15:03:56;21.30;82.10
1700;DHT22;847;48.058;7.810;2023-05-23T15:06:23;21.40;82.10
1700;DHT22;847;48.058;7.810;2023-05-23T15:08:50;21.40;82.80
1700;DHT22;847;48.058;7.810;2023-05-23T15:11:17;21.20;82.60
1700;DHT22;847;48.058;7.810;2023-05-23T15:13:44;21.10;81.80
1700;DHT22;847;48.058;7.810;2023-05-23T15:16:11;21.00;81.70
1700;DHT22;847;48.058;7.810;2023-05-23T15:18:39;21.10;82.10
1700;DHT22;847;48.058;7.810;2023-05-23T15:21:06;21.10;80.70
1700;DHT22;847;48.058;7.810;2023-05-23T15:23:32;21.20;81.10
1700;DHT22;847;48.058;7.810;2023-05-23T15:25:59;21.20;80.90
1700;DHT22;847;48.058;7.810;2023-05-23T15:28:26;21.20;80.20
1700;DHT22;847;48.058;7.810;2023-05-23T15:30:52;21.50;80.80
1700;DHT22;847;48.058;7.810;2023-05-23T15:33:21;21.60;80.30
1700;DHT22;847;48.058;7.810;2023-05-23T15:35:49;21.80;79.20
1700;DHT22;847;48.058;7.810;2023-05-23T15:38:17;22.00;78.70
1700;DHT22;847;48.058;7.810;2023-05-23T15:40:44;21.90;78.60
1700;DHT22;847;48.058;7.810;2023-05-23T15:43:13;21.70;78.80
1700;DHT22;847;48.058;7.810;2023-05-23T15:45:39;21.50;79.00
1700;DHT22;847;48.058;7.810;2023-05-23T15:48:06;21.50;80.00
1700;DHT22;847;48.058;7.810;2023-05-23T15:50:33;21.50;78.50
1700;DHT22;847;48.058;7.810;2023-05-23T15:53:01;21.40;78.90
1700;DHT22;847;48.058;7.810;2023-05-23T15:55:28;21.40;78.80
1700;DHT22;847;48.058;7.810;2023-05-23T15:57:54;21.50;79.90
1700;DHT22;847;48.058;7.810;2023-05-23T16:00:21;21.50;77.70
1700;DHT22;847;48.058;7.810;2023-05-23T16:02:48;21.60;78.10
1700;DHT22;847;48.058;7.810;2023-05-23T16:05:15;21.60;77.00
1700;DHT22;847;48.058;7.810;2023-05-23T16:07:41;21.50;79.00
1700;DHT22;847;48.058;7.810;2023-05-23T16:10:10;21.50;78.60
1700;DHT22;847;48.058;7.810;2023-05-23T16:12:38;21.60;78.30
1700;DHT22;847;48.058;7.810;2023-05-23T16:15:05;21.60;76.90
1700;DHT22;847;48.058;7.810;2023-05-23T16:17:32;21.60;77.80
1700;DHT22;847;48.058;7.810;2023-05-23T16:19:59;21.60;77.10
1700;DHT22;847;48.058;7.810;2023-05-23T16:22:27;21.50;78.30
1700;DHT22;847;48.058;7.810;2023-05-23T16:24:54;21.60;78.50
1700;DHT22;847;48.058;7.810;2023-05-23T16:27:22;21.50;79.80